sensor_id;sensor_type;location;lat;lon;timestamp;P1;durP1;ratioP1;P2;durP2;ratioP2
45620;SDS011;31345;51.522;10.702;2023-06-10T00:00:55;8.95;;;5.03;;
45620;SDS011;31345;51.522;10.702;2023-06-10T00:03:24;6.15;;;4.18;;
45620;SDS011;31345;51.522;10.702;2023-06-10T00:05:57;7.70;;;4.88;;
45620;SDS011;31345;51.522;10.702;2023-06-10T00:08:31;6.45;;;4.47;;
45620;SDS011;31345;51.522;10.702;2023-06-10T00:11:04;7.43;;;4.65;;
45620;SDS011;31345;51.522;10.702;2023-06-10T00:13:38;6.50;;;4.50;;
45620;SDS011;31345;51.522;10.702;2023-06-10T00:16:11;9.70;;;4.88;;
45620;SDS011;31345;51.522;10.702;2023-06-10T00:18:40;6.15;;;4.65;;
45620;SDS011;31345;51.522;10.702;2023-06-10T00:21:12;7.22;;;4.35;;
45620;SDS011;31345;51.522;10.702;2023-06-10T00:23:40;7.88;;;4.93;;
45620;SDS011;31345;51.522;10.702;2023-06-10T00:26:08;7.65;;;4.70;;
45620;SDS011;31345;51.522;10.702;2023-06-10T00:28:36;7.35;;;4.70;;
45620;SDS011;31345;51.522;10.702;2023-06-10T00:31:09;9.43;;;4.75;;
45620;SDS011;31345;51.522;10.702;2023-06-10T00:33:40;5.75;;;4.68;;
45620;SDS011;31345;51.522;10.702;2023-06-10T00:36:08;9.02;;;5.13;;
45620;SDS011;31345;51.522;10.702;2023-06-10T00:38:40;7.30;;;4.53;;
45620;SDS011;31345;51.522;10.702;2023-06-10T00:41:09;10.18;;;5.05;;
45620;SDS011;31345;51.522;10.702;2023-06-10T00:43:36;9.02;;;4.43;;
45620;SDS011;31345;51.522;10.702;2023-06-10T00:46:04;9.18;;;4.97;;
45620;SDS011;31345;51.522;10.702;2023-06-10T00:48:37;10.05;;;4.90;;
45620;SDS011;31345;51.522;10.702;2023-06-10T00:51:11;5.85;;;4.22;;
45620;SDS011;31345;51.522;10.702;2023-06-10T00:53:44;7.03;;;4.75;;
45620;SDS011;31345;51.522;10.702;2023-06-10T00:56:19;7.70;;;4.40;;
45620;SDS011;31345;51.522;10.702;2023-06-10T00:58:47;6.45;;;4.55;;
45620;SDS011;31345;51.522;10.702;2023-06-10T01:01:15;6.50;;;4.38;;
45620;SDS011;31345;51.522;10.702;2023-06-10T01:03:43;7.88;;;5.05;;
45620;SDS011;31345;51.522;10.702;2023-06-10T01:06:14;10.25;;;4.60;;
45620;SDS011;31345;51.522;10.702;2023-06-10T01:08:53;9.70;;;5.15;;
45620;SDS011;31345;51.522;10.702;2023-06-10T01:11:28;8.07;;;4.53;;
45620;SDS011;31345;51.522;10.702;2023-06-10T01:14:00;7.13;;;4.35;;
45620;SDS011;31345;51.522;10.702;2023-06-10T01:16:28;11.60;;;4.93;;
45620;SDS011;31345;51.522;10.702;2023-06-10T01:18:55;7.65;;;4.97;;
45620;SDS011;31345;51.522;10.702;2023-06-10T01:21:31;9.23;;;4.57;;
45620;SDS011;31345;51.522;10.702;2023-06-10T01:23:59;7.57;;;5.00;;
45620;SDS011;31345;51.522;10.702;2023-06-10T01:26:28;7.78;;;4.63;;
45620;SDS011;31345;51.522;10.702;2023-06-10T01:29:07;6.57;;;4.40;;
45620;SDS011;31345;51.522;10.702;2023-06-10T01:31:41;7.68;;;4.25;;
45620;SDS011;31345;51.522;10.702;2023-06-10T01:34:16;5.88;;;4.22;;
45620;SDS011;31345;51.522;10.702;2023-06-10T01:36:52;6.97;;;3.90;;
45620;SDS011;31345;51.522;10.702;2023-06-10T01:39:28;6.15;;;4.10;;
45620;SDS011;31345;51.522;10.702;2023-06-10T01:41:59;7.00;;;4.38;;
45620;SDS011;31345;51.522;10.702;2023-06-10T01:44:30;6.85;;;4.97;;
45620;SDS011;31345;51.522;10.702;2023-06-10T01:46:58;7.90;;;4.80;;
45620;SDS011;31345;51.522;10.702;2023-06-10T01:49:27;7.40;;;4.65;;
45620;SDS011;31345;51.522;10.702;2023-06-10T01:51:56;6.60;;;4.10;;
45620;SDS011;31345;51.522;10.702;2023-06-10T01:54:28;9.90;;;4.70;;
45620;SDS011;31345;51.522;10.702;2023-06-10T01:56:56;9.95;;;4.65;;
45620;SDS011;31345;51.522;10.702;2023-06-10T01:59:23;6.50;;;4.28;;
45620;SDS011;31345;51.522;10.702;2023-06-10T02:01:56;7.35;;;4.40;;
45620;SDS011;31345;51.522;10.702;2023-06-10T02:04:24;7.05;;;4.40;;
45620;SDS011;31345;51.522;10.702;2023-06-10T02:06:58;6.65;;;4.40;;
45620;SDS011;31345;51.522;10.702;2023-06-10T02:09:29;7.80;;;4.80;;
45620;SDS011;31345;51.522;10.702;2023-06-10T02:12:02;9.07;;;4.90;;
45620;SDS011;31345;51.522;10.702;2023-06-10T02:14:31;7.90;;;4.60;;
45620;SDS011;31345;51.522;10.702;2023-06-10T02:17:05;9.13;;;4.63;;
45620;SDS011;31345;51.522;10.702;2023-06-10T02:19:33;7.80;;;4.50;;
45620;SDS011;31345;51.522;10.702;2023-06-10T02:22:04;7.50;;;4.85;;
45620;SDS011;31345;51.522;10.702;2023-06-10T02:24:31;6.70;;;4.80;;
45620;SDS011;31345;51.522;10.702;2023-06-10T02:26:58;6.78;;;4.80;;
45620;SDS011;31345;51.522;10.702;2023-06-10T02:29:26;6.82;;;4.82;;
45620;SDS011;31345;51.522;10.702;2023-06-10T02:31:59;8.40;;;4.72;;
45620;SDS011;31345;51.522;10.702;2023-06-10T02:34:32;7.38;;;4.88;;
45620;SDS011;31345;51.522;10.702;2023-06-10T02:37:06;6.47;;;4.28;;
45620;SDS011;31345;51.522;10.702;2023-06-10T02:39:40;7.40;;;4.38;;
45620;SDS011;31345;51.522;10.702;2023-06-10T02:42:15;11.13;;;5.22;;
45620;SDS011;31345;51.522;10.702;2023-06-10T02:44:48;6.85;;;4.60;;
45620;SDS011;31345;51.522;10.702;2023-06-10T02:47:24;8.55;;;4.65;;
45620;SDS011;31345;51.522;10.702;2023-06-10T02:49:52;8.48;;;4.85;;
45620;SDS011;31345;51.522;10.702;2023-06-10T02:52:26;6.85;;;4.30;;
45620;SDS011;31345;51.522;10.702;2023-06-10T02:54:58;8.80;;;4.72;;
45620;SDS011;31345;51.522;10.702;2023-06-10T02:57:31;9.35;;;5.13;;
45620;SDS011;31345;51.522;10.702;2023-06-10T03:00:06;6.75;;;4.40;;
45620;SDS011;31345;51.522;10.702;2023-06-10T03:02:38;11.95;;;4.72;;
45620;SDS011;31345;51.522;10.702;2023-06-10T03:05:12;7.53;;;4.85;;
45620;SDS011;31345;51.522;10.702;2023-06-10T03:07:44;8.50;;;4.22;;
45620;SDS011;31345;51.522;10.702;2023-06-10T03:10:17;10.27;;;4.03;;
45620;SDS011;31345;51.522;10.702;2023-06-10T03:12:50;6.43;;;4.70;;
45620;SDS011;31345;51.522;10.702;2023-06-10T03:15:18;6.18;;;4.30;;
45620;SDS011;31345;51.522;10.702;2023-06-10T03:17:53;7.10;;;4.85;;
45620;SDS011;31345;51.522;10.702;2023-06-10T03:20:21;8.80;;;4.70;;
45620;SDS011;31345;51.522;10.702;2023-06-10T03:22:57;5.85;;;4.28;;
45620;SDS011;31345;51.522;10.702;2023-06-10T03:25:24;6.65;;;4.88;;
45620;SDS011;31345;51.522;10.702;2023-06-10T03:27:58;6.75;;;4.30;;
45620;SDS011;31345;51.522;10.702;2023-06-10T03:30:32;7.82;;;4.70;;
45620;SDS011;31345;51.522;10.702;2023-06-10T03:32:59;7.38;;;4.70;;
45620;SDS011;31345;51.522;10.702;2023-06-10T03:35:33;9.63;;;5.38;;
45620;SDS011;31345;51.522;10.702;2023-06-10T03:38:05;7.78;;;4.95;;
45620;SDS011;31345;51.522;10.702;2023-06-10T03:40:33;13.65;;;5.03;;
45620;SDS011;31345;51.522;10.702;2023-06-10T03:43:06;8.55;;;4.65;;
45620;SDS011;31345;51.522;10.702;2023-06-10T03:45:40;7.47;;;4.60;;
45620;SDS011;31345;51.522;10.702;2023-06-10T03:48:08;7.85;;;5.05;;
45620;SDS011;31345;51.522;10.702;2023-06-10T03:50:51;6.97;;;4.93;;
45620;SDS011;31345;51.522;10.702;2023-06-10T03:53:21;10.55;;;5.15;;
45620;SDS011;31345;51.522;10.702;2023-06-10T03:55:55;9.27;;;4.85;;
45620;SDS011;31345;51.522;10.702;2023-06-10T03:58:25;8.23;;;4.95;;
45620;SDS011;31345;51.522;10.702;2023-06-10T04:00:53;10.50;;;5.07;;
45620;SDS011;31345;51.522;10.702;2023-06-10T04:03:30;5.47;;;4.25;;
45620;SDS011;31345;51.522;10.702;2023-06-10T04:06:04;7.25;;;4.97;;
45620;SDS011;31345;51.522;10.702;2023-06-10T04:08:33;6.13;;;4.68;;
45620;SDS011;31345;51.522;10.702;2023-06-10T04:11:02;7.57;;;4.53;;
45620;SDS011;31345;51.522;10.702;2023-06-10T04:13:29;6.50;;;4.38;;
45620;SDS011;31345;51.522;10.702;2023-06-10T04:15:59;7.72;;;4.70;;
45620;SDS011;31345;51.522;10.702;2023-06-10T04:18:32;8.82;;;5.43;;
45620;SDS011;31345;51.522;10.702;2023-06-10T04:21:04;7.53;;;4.88;;
45620;SDS011;31345;51.522;10.702;2023-06-10T04:23:39;7.47;;;4.70;;
45620;SDS011;31345;51.522;10.702;2023-06-10T04:26:14;11.23;;;5.10;;
45620;SDS011;31345;51.522;10.702;2023-06-10T04:28:50;8.93;;;5.15;;
45620;SDS011;31345;51.522;10.702;2023-06-10T04:31:18;6.82;;;5.47;;
45620;SDS011;31345;51.522;10.702;2023-06-10T04:33:52;8.18;;;4.70;;
45620;SDS011;31345;51.522;10.702;2023-06-10T04:36:19;10.30;;;4.75;;
45620;SDS011;31345;51.522;10.702;2023-06-10T04:38:48;7.47;;;4.97;;
45620;SDS011;31345;51.522;10.702;2023-06-10T04:41:23;6.63;;;4.80;;
45620;SDS011;31345;51.522;10.702;2023-06-10T04:43:52;6.63;;;4.80;;
45620;SDS011;31345;51.522;10.702;2023-06-10T04:46:20;6.45;;;4.88;;
45620;SDS011;31345;51.522;10.702;2023-06-10T04:48:53;9.68;;;5.22;;
45620;SDS011;31345;51.522;10.702;2023-06-10T04:53:54;7.13;;;4.60;;
45620;SDS011;31345;51.522;10.702;2023-06-10T04:56:26;8.05;;;4.93;;
45620;SDS011;31345;51.522;10.702;2023-06-10T04:58:59;6.32;;;4.70;;
45620;SDS011;31345;51.522;10.702;2023-06-10T05:01:27;9.05;;;4.85;;
45620;SDS011;31345;51.522;10.702;2023-06-10T05:03:54;6.25;;;4.38;;
45620;SDS011;31345;51.522;10.702;2023-06-10T05:06:27;8.20;;;4.55;;
45620;SDS011;31345;51.522;10.702;2023-06-10T05:09:01;7.00;;;4.80;;
45620;SDS011;31345;51.522;10.702;2023-06-10T05:11:28;7.53;;;4.65;;
45620;SDS011;31345;51.522;10.702;2023-06-10T05:14:01;7.00;;;4.15;;
45620;SDS011;31345;51.522;10.702;2023-06-10T05:16:29;7.32;;;4.47;;
45620;SDS011;31345;51.522;10.702;2023-06-10T05:18:56;8.32;;;5.40;;
45620;SDS011;31345;51.522;10.702;2023-06-10T05:21:23;8.38;;;5.35;;
45620;SDS011;31345;51.522;10.702;2023-06-10T05:23:51;9.60;;;5.90;;
45620;SDS011;31345;51.522;10.702;2023-06-10T05:26:20;10.88;;;6.32;;
45620;SDS011;31345;51.522;10.702;2023-06-10T05:28:47;8.90;;;6.18;;
45620;SDS011;31345;51.522;10.702;2023-06-10T05:31:15;9.80;;;5.57;;
45620;SDS011;31345;51.522;10.702;2023-06-10T05:33:42;6.88;;;5.22;;
45620;SDS011;31345;51.522;10.702;2023-06-10T05:36:15;10.65;;;4.95;;
45620;SDS011;31345;51.522;10.702;2023-06-10T05:38:42;6.32;;;4.75;;
45620;SDS011;31345;51.522;10.702;2023-06-10T05:41:15;8.27;;;5.30;;
45620;SDS011;31345;51.522;10.702;2023-06-10T05:43:48;8.55;;;5.03;;
45620;SDS011;31345;51.522;10.702;2023-06-10T05:46:21;8.73;;;5.55;;
45620;SDS011;31345;51.522;10.702;2023-06-10T05:48:49;8.70;;;4.95;;
45620;SDS011;31345;51.522;10.702;2023-06-10T05:51:17;7.75;;;5.38;;
45620;SDS011;31345;51.522;10.702;2023-06-10T05:53:44;10.23;;;5.30;;
45620;SDS011;31345;51.522;10.702;2023-06-10T05:56:12;7.80;;;5.60;;
45620;SDS011;31345;51.522;10.702;2023-06-10T05:58:40;6.75;;;4.80;;
45620;SDS011;31345;51.522;10.702;2023-06-10T06:01:09;7.55;;;4.90;;
45620;SDS011;31345;51.522;10.702;2023-06-10T06:03:36;8.48;;;5.28;;
45620;SDS011;31345;51.522;10.702;2023-06-10T06:06:09;9.73;;;5.25;;
45620;SDS011;31345;51.522;10.702;2023-06-10T06:08:36;8.48;;;5.43;;
45620;SDS011;31345;51.522;10.702;2023-06-10T06:11:04;11.68;;;5.60;;
45620;SDS011;31345;51.522;10.702;2023-06-10T06:13:36;8.93;;;5.40;;
45620;SDS011;31345;51.522;10.702;2023-06-10T06:16:04;8.27;;;5.95;;
45620;SDS011;31345;51.522;10.702;2023-06-10T06:18:33;6.65;;;4.97;;
45620;SDS011;31345;51.522;10.702;2023-06-10T06:21:00;9.00;;;5.60;;
45620;SDS011;31345;51.522;10.702;2023-06-10T06:23:33;10.45;;;5.90;;
45620;SDS011;31345;51.522;10.702;2023-06-10T06:26:00;11.63;;;5.68;;
45620;SDS011;31345;51.522;10.702;2023-06-10T06:28:33;13.73;;;5.45;;
45620;SDS011;31345;51.522;10.702;2023-06-10T06:31:00;8.80;;;4.82;;
45620;SDS011;31345;51.522;10.702;2023-06-10T06:33:34;11.13;;;5.72;;
45620;SDS011;31345;51.522;10.702;2023-06-10T06:36:03;7.97;;;5.25;;
45620;SDS011;31345;51.522;10.702;2023-06-10T06:38:35;9.30;;;5.63;;
45620;SDS011;31345;51.522;10.702;2023-06-10T06:41:08;8.63;;;4.93;;
45620;SDS011;31345;51.522;10.702;2023-06-10T06:43:41;9.82;;;5.70;;
45620;SDS011;31345;51.522;10.702;2023-06-10T06:46:23;11.88;;;6.32;;
45620;SDS011;31345;51.522;10.702;2023-06-10T06:48:52;13.55;;;6.45;;
45620;SDS011;31345;51.522;10.702;2023-06-10T06:51:20;11.88;;;6.60;;
45620;SDS011;31345;51.522;10.702;2023-06-10T06:53:47;10.18;;;6.38;;
45620;SDS011;31345;51.522;10.702;2023-06-10T06:56:16;8.68;;;6.07;;
45620;SDS011;31345;51.522;10.702;2023-06-10T06:58:48;11.25;;;6.50;;
45620;SDS011;31345;51.522;10.702;2023-06-10T07:01:16;13.07;;;6.90;;
45620;SDS011;31345;51.522;10.702;2023-06-10T07:03:43;15.15;;;6.90;;
45620;SDS011;31345;51.522;10.702;2023-06-10T07:06:17;13.05;;;6.90;;
45620;SDS011;31345;51.522;10.702;2023-06-10T07:08:50;11.40;;;6.40;;
45620;SDS011;31345;51.522;10.702;2023-06-10T07:11:17;11.30;;;6.45;;
45620;SDS011;31345;51.522;10.702;2023-06-10T07:13:50;11.93;;;6.90;;
45620;SDS011;31345;51.522;10.702;2023-06-10T07:16:17;14.85;;;7.97;;
45620;SDS011;31345;51.522;10.702;2023-06-10T07:18:46;9.93;;;6.63;;
45620;SDS011;31345;51.522;10.702;2023-06-10T07:21:20;11.32;;;5.68;;
45620;SDS011;31345;51.522;10.702;2023-06-10T07:23:48;10.40;;;7.00;;
45620;SDS011;31345;51.522;10.702;2023-06-10T07:26:21;11.75;;;6.95;;
45620;SDS011;31345;51.522;10.702;2023-06-10T07:28:49;9.93;;;7.20;;
45620;SDS011;31345;51.522;10.702;2023-06-10T07:31:16;9.32;;;6.93;;
45620;SDS011;31345;51.522;10.702;2023-06-10T07:33:49;13.85;;;7.38;;
45620;SDS011;31345;51.522;10.702;2023-06-10T07:36:16;10.90;;;6.78;;
45620;SDS011;31345;51.522;10.702;2023-06-10T07:38:45;10.15;;;7.45;;
45620;SDS011;31345;51.522;10.702;2023-06-10T07:41:13;10.52;;;7.78;;
45620;SDS011;31345;51.522;10.702;2023-06-10T07:43:48;14.63;;;8.27;;
45620;SDS011;31345;51.522;10.702;2023-06-10T07:46:20;10.13;;;7.25;;
45620;SDS011;31345;51.522;10.702;2023-06-10T07:48:48;12.43;;;7.72;;
45620;SDS011;31345;51.522;10.702;2023-06-10T07:51:16;11.93;;;7.43;;
45620;SDS011;31345;51.522;10.702;2023-06-10T07:53:56;12.40;;;8.00;;
45620;SDS011;31345;51.522;10.702;2023-06-10T07:56:24;12.30;;;7.97;;
45620;SDS011;31345;51.522;10.702;2023-06-10T07:58:57;12.60;;;8.05;;
45620;SDS011;31345;51.522;10.702;2023-06-10T08:01:25;13.00;;;8.43;;
45620;SDS011;31345;51.522;10.702;2023-06-10T08:03:58;11.52;;;8.20;;
45620;SDS011;31345;51.522;10.702;2023-06-10T08:06:25;11.45;;;8.15;;
45620;SDS011;31345;51.522;10.702;2023-06-10T08:08:54;10.60;;;7.35;;
45620;SDS011;31345;51.522;10.702;2023-06-10T08:11:23;11.52;;;7.57;;
45620;SDS011;31345;51.522;10.702;2023-06-10T08:13:58;9.52;;;7.68;;
45620;SDS011;31345;51.522;10.702;2023-06-10T08:16:25;9.57;;;7.43;;
45620;SDS011;31345;51.522;10.702;2023-06-10T08:18:58;12.63;;;7.63;;
45620;SDS011;31345;51.522;10.702;2023-06-10T08:21:25;13.23;;;8.35;;
45620;SDS011;31345;51.522;10.702;2023-06-10T08:24:22;13.82;;;8.70;;
45620;SDS011;31345;51.522;10.702;2023-06-10T08:27:04;10.82;;;8.30;;
45620;SDS011;31345;51.522;10.702;2023-06-10T08:29:34;13.82;;;8.85;;
45620;SDS011;31345;51.522;10.702;2023-06-10T08:32:02;10.20;;;7.65;;
45620;SDS011;31345;51.522;10.702;2023-06-10T08:34:32;9.75;;;7.78;;
45620;SDS011;31345;51.522;10.702;2023-06-10T08:37:01;15.27;;;8.18;;
45620;SDS011;31345;51.522;10.702;2023-06-10T08:39:30;14.65;;;8.95;;
45620;SDS011;31345;51.522;10.702;2023-06-10T08:42:00;11.55;;;8.07;;
45620;SDS011;31345;51.522;10.702;2023-06-10T08:44:49;9.75;;;7.05;;
45620;SDS011;31345;51.522;10.702;2023-06-10T08:47:22;13.10;;;7.03;;
45620;SDS011;31345;51.522;10.702;2023-06-10T08:49:51;10.32;;;7.38;;
45620;SDS011;31345;51.522;10.702;2023-06-10T08:52:27;13.18;;;8.13;;
45620;SDS011;31345;51.522;10.702;2023-06-10T08:54:57;10.98;;;8.07;;
45620;SDS011;31345;51.522;10.702;2023-06-10T08:57:28;9.85;;;8.13;;
45620;SDS011;31345;51.522;10.702;2023-06-10T08:59:57;10.38;;;8.90;;
45620;SDS011;31345;51.522;10.702;2023-06-10T09:02:25;12.93;;;7.78;;
45620;SDS011;31345;51.522;10.702;2023-06-10T09:04:59;12.05;;;8.48;;
45620;SDS011;31345;51.522;10.702;2023-06-10T09:07:27;11.30;;;8.63;;
45620;SDS011;31345;51.522;10.702;2023-06-10T09:10:02;12.05;;;8.73;;
45620;SDS011;31345;51.522;10.702;2023-06-10T09:12:34;13.60;;;9.10;;
45620;SDS011;31345;51.522;10.702;2023-06-10T09:15:09;11.95;;;8.40;;
45620;SDS011;31345;51.522;10.702;2023-06-10T09:17:38;12.13;;;8.50;;
45620;SDS011;31345;51.522;10.702;2023-06-10T09:20:06;10.90;;;8.40;;
45620;SDS011;31345;51.522;10.702;2023-06-10T09:22:40;11.35;;;8.70;;
45620;SDS011;31345;51.522;10.702;2023-06-10T09:25:09;13.18;;;7.97;;
45620;SDS011;31345;51.522;10.702;2023-06-10T09:27:48;11.77;;;8.32;;
45620;SDS011;31345;51.522;10.702;2023-06-10T09:30:26;11.02;;;8.52;;
45620;SDS011;31345;51.522;10.702;2023-06-10T09:32:55;11.10;;;8.90;;
45620;SDS011;31345;51.522;10.702;2023-06-10T09:35:28;11.63;;;7.78;;
45620;SDS011;31345;51.522;10.702;2023-06-10T09:37:57;11.35;;;8.13;;
45620;SDS011;31345;51.522;10.702;2023-06-10T09:40:28;12.05;;;7.93;;
45620;SDS011;31345;51.522;10.702;2023-06-10T09:43:02;14.35;;;9.88;;
45620;SDS011;31345;51.522;10.702;2023-06-10T09:45:34;14.23;;;10.68;;
45620;SDS011;31345;51.522;10.702;2023-06-10T09:48:02;12.93;;;8.77;;
45620;SDS011;31345;51.522;10.702;2023-06-10T09:50:37;12.30;;;9.13;;
45620;SDS011;31345;51.522;10.702;2023-06-10T09:53:09;12.70;;;9.88;;
45620;SDS011;31345;51.522;10.702;2023-06-10T09:55:43;13.13;;;8.85;;
45620;SDS011;31345;51.522;10.702;2023-06-10T09:58:12;10.57;;;8.75;;
45620;SDS011;31345;51.522;10.702;2023-06-10T10:00:40;12.13;;;8.23;;
45620;SDS011;31345;51.522;10.702;2023-06-10T10:03:07;10.02;;;7.30;;
45620;SDS011;31345;51.522;10.702;2023-06-10T10:05:34;7.50;;;6.78;;
45620;SDS011;31345;51.522;10.702;2023-06-10T10:08:02;9.48;;;6.93;;
45620;SDS011;31345;51.522;10.702;2023-06-10T10:10:30;9.57;;;7.10;;
45620;SDS011;31345;51.522;10.702;2023-06-10T10:13:02;8.80;;;7.00;;
45620;SDS011;31345;51.522;10.702;2023-06-10T10:15:32;7.82;;;6.38;;
45620;SDS011;31345;51.522;10.702;2023-06-10T10:18:04;10.43;;;6.60;;
45620;SDS011;31345;51.522;10.702;2023-06-10T10:20:42;12.52;;;7.00;;
45620;SDS011;31345;51.522;10.702;2023-06-10T10:23:21;9.82;;;6.35;;
45620;SDS011;31345;51.522;10.702;2023-06-10T10:25:56;7.82;;;7.03;;
45620;SDS011;31345;51.522;10.702;2023-06-10T10:28:29;9.15;;;6.28;;
45620;SDS011;31345;51.522;10.702;2023-06-10T10:31:07;9.38;;;7.10;;
45620;SDS011;31345;51.522;10.702;2023-06-10T10:33:45;9.85;;;6.82;;
45620;SDS011;31345;51.522;10.702;2023-06-10T10:36:20;9.20;;;7.63;;
45620;SDS011;31345;51.522;10.702;2023-06-10T10:38:53;7.85;;;7.05;;
45620;SDS011;31345;51.522;10.702;2023-06-10T10:41:26;8.38;;;6.72;;
45620;SDS011;31345;51.522;10.702;2023-06-10T10:43:55;7.65;;;6.75;;
45620;SDS011;31345;51.522;10.702;2023-06-10T10:46:24;8.18;;;6.57;;
45620;SDS011;31345;51.522;10.702;2023-06-10T10:48:57;7.40;;;6.63;;
45620;SDS011;31345;51.522;10.702;2023-06-10T10:51:33;9.35;;;7.05;;
45620;SDS011;31345;51.522;10.702;2023-06-10T10:54:09;8.35;;;6.78;;
45620;SDS011;31345;51.522;10.702;2023-06-10T10:59:56;7.60;;;6.63;;
45620;SDS011;31345;51.522;10.702;2023-06-10T11:02:35;7.97;;;6.45;;
45620;SDS011;31345;51.522;10.702;2023-06-10T11:05:10;7.30;;;6.60;;
45620;SDS011;31345;51.522;10.702;2023-06-10T11:07:51;9.02;;;6.63;;
45620;SDS011;31345;51.522;10.702;2023-06-10T11:10:28;6.75;;;6.05;;
45620;SDS011;31345;51.522;10.702;2023-06-10T11:12:57;9.48;;;6.57;;
45620;SDS011;31345;51.522;10.702;2023-06-10T11:15:25;8.88;;;7.10;;
45620;SDS011;31345;51.522;10.702;2023-06-10T11:18:08;11.35;;;7.50;;
45620;SDS011;31345;51.522;10.702;2023-06-10T11:20:53;9.93;;;7.10;;
45620;SDS011;31345;51.522;10.702;2023-06-10T11:23:26;9.15;;;7.05;;
45620;SDS011;31345;51.522;10.702;2023-06-10T11:26:20;10.52;;;7.72;;
45620;SDS011;31345;51.522;10.702;2023-06-10T11:31:49;8.38;;;6.65;;
45620;SDS011;31345;51.522;10.702;2023-06-10T11:34:22;9.65;;;6.35;;
45620;SDS011;31345;51.522;10.702;2023-06-10T11:36:59;11.05;;;7.05;;
45620;SDS011;31345;51.522;10.702;2023-06-10T11:39:32;10.13;;;6.93;;
45620;SDS011;31345;51.522;10.702;2023-06-10T11:42:06;10.88;;;6.57;;
45620;SDS011;31345;51.522;10.702;2023-06-10T11:44:39;10.00;;;6.57;;
45620;SDS011;31345;51.522;10.702;2023-06-10T11:47:15;9.50;;;6.57;;
45620;SDS011;31345;51.522;10.702;2023-06-10T11:49:44;9.60;;;6.43;;
45620;SDS011;31345;51.522;10.702;2023-06-10T11:52:17;9.18;;;6.63;;
45620;SDS011;31345;51.522;10.702;2023-06-10T11:54:58;9.32;;;6.20;;
45620;SDS011;31345;51.522;10.702;2023-06-10T11:57:26;13.88;;;6.40;;
45620;SDS011;31345;51.522;10.702;2023-06-10T11:59:53;8.45;;;6.50;;
45620;SDS011;31345;51.522;10.702;2023-06-10T12:02:26;10.00;;;6.30;;
45620;SDS011;31345;51.522;10.702;2023-06-10T12:05:10;10.50;;;6.07;;
45620;SDS011;31345;51.522;10.702;2023-06-10T12:10:43;9.25;;;6.95;;
45620;SDS011;31345;51.522;10.702;2023-06-10T12:13:11;9.63;;;6.88;;
45620;SDS011;31345;51.522;10.702;2023-06-10T12:15:39;7.70;;;6.47;;
45620;SDS011;31345;51.522;10.702;2023-06-10T12:18:15;8.43;;;6.70;;
45620;SDS011;31345;51.522;10.702;2023-06-10T12:20:45;10.23;;;7.18;;
45620;SDS011;31345;51.522;10.702;2023-06-10T12:23:14;8.07;;;6.20;;
45620;SDS011;31345;51.522;10.702;2023-06-10T12:25:50;9.68;;;6.45;;
45620;SDS011;31345;51.522;10.702;2023-06-10T12:28:20;8.25;;;6.65;;
45620;SDS011;31345;51.522;10.702;2023-06-10T12:30:49;7.35;;;6.07;;
45620;SDS011;31345;51.522;10.702;2023-06-10T12:33:21;9.57;;;6.82;;
45620;SDS011;31345;51.522;10.702;2023-06-10T12:35:51;9.38;;;6.50;;
45620;SDS011;31345;51.522;10.702;2023-06-10T12:38:22;7.70;;;6.40;;
45620;SDS011;31345;51.522;10.702;2023-06-10T12:41:02;8.27;;;6.85;;
45620;SDS011;31345;51.522;10.702;2023-06-10T12:43:37;10.15;;;6.72;;
45620;SDS011;31345;51.522;10.702;2023-06-10T12:46:11;9.38;;;6.35;;
45620;SDS011;31345;51.522;10.702;2023-06-10T12:48:49;10.40;;;6.20;;
45620;SDS011;31345;51.522;10.702;2023-06-10T12:51:19;8.52;;;7.03;;
45620;SDS011;31345;51.522;10.702;2023-06-10T12:53:51;9.80;;;6.50;;
45620;SDS011;31345;51.522;10.702;2023-06-10T12:56:24;9.52;;;6.80;;
45620;SDS011;31345;51.522;10.702;2023-06-10T12:58:56;7.82;;;6.85;;
45620;SDS011;31345;51.522;10.702;2023-06-10T13:01:24;11.43;;;6.28;;
45620;SDS011;31345;51.522;10.702;2023-06-10T13:03:52;9.70;;;6.82;;
45620;SDS011;31345;51.522;10.702;2023-06-10T13:06:22;9.55;;;6.82;;
45620;SDS011;31345;51.522;10.702;2023-06-10T13:08:55;10.20;;;6.25;;
45620;SDS011;31345;51.522;10.702;2023-06-10T13:11:23;7.40;;;6.70;;
45620;SDS011;31345;51.522;10.702;2023-06-10T13:13:51;12.20;;;6.65;;
45620;SDS011;31345;51.522;10.702;2023-06-10T13:16:19;8.65;;;6.53;;
45620;SDS011;31345;51.522;10.702;2023-06-10T13:18:46;7.72;;;6.22;;
45620;SDS011;31345;51.522;10.702;2023-06-10T13:21:14;8.38;;;6.65;;
45620;SDS011;31345;51.522;10.702;2023-06-10T13:23:48;8.40;;;6.65;;
45620;SDS011;31345;51.522;10.702;2023-06-10T13:26:22;7.53;;;6.47;;
45620;SDS011;31345;51.522;10.702;2023-06-10T13:28:49;10.25;;;6.90;;
45620;SDS011;31345;51.522;10.702;2023-06-10T13:31:22;10.20;;;6.53;;
45620;SDS011;31345;51.522;10.702;2023-06-10T13:33:49;9.20;;;7.18;;
45620;SDS011;31345;51.522;10.702;2023-06-10T13:36:22;9.77;;;6.72;;
45620;SDS011;31345;51.522;10.702;2023-06-10T13:38:56;8.40;;;6.55;;
45620;SDS011;31345;51.522;10.702;2023-06-10T13:41:28;9.75;;;6.50;;
45620;SDS011;31345;51.522;10.702;2023-06-10T13:44:01;7.88;;;6.28;;
45620;SDS011;31345;51.522;10.702;2023-06-10T13:46:29;9.23;;;6.60;;
45620;SDS011;31345;51.522;10.702;2023-06-10T13:48:56;9.80;;;6.55;;
45620;SDS011;31345;51.522;10.702;2023-06-10T13:51:25;7.75;;;6.47;;
45620;SDS011;31345;51.522;10.702;2023-06-10T13:53:52;8.88;;;6.63;;
45620;SDS011;31345;51.522;10.702;2023-06-10T13:56:26;8.95;;;6.95;;
45620;SDS011;31345;51.522;10.702;2023-06-10T13:58:59;11.15;;;6.80;;
45620;SDS011;31345;51.522;10.702;2023-06-10T14:01:26;9.65;;;6.80;;
45620;SDS011;31345;51.522;10.702;2023-06-10T14:03:59;8.18;;;6.70;;
45620;SDS011;31345;51.522;10.702;2023-06-10T14:06:33;7.32;;;6.55;;
45620;SDS011;31345;51.522;10.702;2023-06-10T14:09:06;8.73;;;7.35;;
45620;SDS011;31345;51.522;10.702;2023-06-10T14:11:40;10.02;;;7.00;;
45620;SDS011;31345;51.522;10.702;2023-06-10T14:14:08;8.75;;;6.13;;
45620;SDS011;31345;51.522;10.702;2023-06-10T14:16:36;8.40;;;6.60;;
45620;SDS011;31345;51.522;10.702;2023-06-10T14:19:03;10.93;;;6.85;;
45620;SDS011;31345;51.522;10.702;2023-06-10T14:21:36;8.38;;;6.95;;
45620;SDS011;31345;51.522;10.702;2023-06-10T14:24:08;7.70;;;6.65;;
45620;SDS011;31345;51.522;10.702;2023-06-10T14:26:36;9.65;;;6.65;;
45620;SDS011;31345;51.522;10.702;2023-06-10T14:29:12;9.35;;;7.03;;
45620;SDS011;31345;51.522;10.702;2023-06-10T14:31:40;9.90;;;6.95;;
45620;SDS011;31345;51.522;10.702;2023-06-10T14:34:08;11.10;;;6.93;;
45620;SDS011;31345;51.522;10.702;2023-06-10T14:36:35;9.00;;;6.78;;
45620;SDS011;31345;51.522;10.702;2023-06-10T14:39:04;7.82;;;6.40;;
45620;SDS011;31345;51.522;10.702;2023-06-10T14:41:36;8.40;;;6.68;;
45620;SDS011;31345;51.522;10.702;2023-06-10T14:44:09;9.68;;;6.38;;
45620;SDS011;31345;51.522;10.702;2023-06-10T14:46:43;8.07;;;6.93;;
45620;SDS011;31345;51.522;10.702;2023-06-10T14:49:16;8.20;;;6.93;;
45620;SDS011;31345;51.522;10.702;2023-06-10T14:51:43;7.35;;;6.50;;
45620;SDS011;31345;51.522;10.702;2023-06-10T14:54:11;7.35;;;6.65;;
45620;SDS011;31345;51.522;10.702;2023-06-10T14:56:44;8.90;;;6.78;;
45620;SDS011;31345;51.522;10.702;2023-06-10T14:59:16;11.30;;;6.85;;
45620;SDS011;31345;51.522;10.702;2023-06-10T15:01:50;9.88;;;7.00;;
45620;SDS011;31345;51.522;10.702;2023-06-10T15:04:23;9.00;;;6.78;;
45620;SDS011;31345;51.522;10.702;2023-06-10T15:06:50;11.55;;;6.85;;